Terminal Aerodrome Forecast
Issued by NWS

Home | Current Version | Previous Version | Text Only | Print | Product List | Glossary On
Versions: 1 2 3 4 5 6 7 8 9 10 11 12
000
FTUS41 KBTV 191700
TAFSLK
TAF
KSLK 191721Z 1918/2018 VRB03KT P6SM SKC
     FM200500 20007KT P6SM SKC WS020/22035KT
     FM201300 22012G24KT P6SM BKN030=

USA.gov is the U.S. government's official web portal to all federal, state and local government web resources and services.